createdAt,value
2018-06-25T00:00:39.980Z,6.10
2018-06-25T00:03:10.226Z,6.17
2018-06-25T00:05:40.515Z,6.73
2018-06-25T00:08:10.853Z,7.27
2018-06-25T00:10:41.100Z,6.57
2018-06-25T00:13:11.518Z,7.10
2018-06-25T00:15:41.961Z,7.63
2018-06-25T00:18:12.336Z,7.80
2018-06-25T00:20:42.692Z,8.53
2018-06-25T00:23:12.983Z,8.50
2018-06-25T00:25:43.503Z,9.10
2018-06-25T00:28:13.855Z,9.77
2018-06-25T00:30:44.296Z,8.63
2018-06-25T00:33:14.624Z,8.50
2018-06-25T00:35:45.015Z,9.77
2018-06-25T00:38:15.338Z,8.03
2018-06-25T00:40:45.622Z,8.87
2018-06-25T00:43:15.980Z,7.90
2018-06-25T00:45:46.332Z,8.30
2018-06-25T00:48:16.679Z,9.20
2018-06-25T00:50:47.034Z,8.20
2018-06-25T00:53:17.314Z,8.70
2018-06-25T00:55:47.740Z,9.90
2018-06-25T00:58:18.073Z,8.00
2018-06-25T01:00:48.380Z,8.93
2018-06-25T01:03:19.513Z,8.97
2018-06-25T01:05:49.884Z,9.77
2018-06-25T01:08:20.201Z,9.30
2018-06-25T01:10:50.604Z,8.73
2018-06-25T01:16:18.706Z,9.80
2018-06-25T01:18:49.052Z,10.33
2018-06-25T01:21:20.187Z,10.53
2018-06-25T01:23:50.600Z,10.80
2018-06-25T01:26:20.951Z,12.20
2018-06-25T01:28:51.261Z,11.33
2018-06-25T01:31:21.620Z,12.10
2018-06-25T01:33:52.111Z,11.77
2018-06-25T01:36:22.502Z,12.00
2018-06-25T01:38:52.503Z,12.20
2018-06-25T01:41:22.993Z,11.80
2018-06-25T01:43:53.373Z,13.60
2018-06-25T01:46:23.624Z,12.67
2018-06-25T01:48:53.732Z,11.73
2018-06-25T01:51:23.948Z,11.83
2018-06-25T01:53:54.542Z,11.80
2018-06-25T01:56:24.903Z,11.10
2018-06-25T01:58:55.215Z,11.70
2018-06-25T02:01:25.588Z,12.33
2018-06-25T02:03:56.057Z,13.17
2018-06-25T02:06:26.572Z,13.00
2018-06-25T02:08:57.022Z,11.90
2018-06-25T02:11:27.476Z,12.83
2018-06-25T02:13:57.819Z,11.17
2018-06-25T02:16:28.168Z,13.10
2018-06-25T02:18:58.468Z,12.00
2018-06-25T02:21:28.938Z,15.90
2018-06-25T02:23:59.267Z,15.67
2018-06-25T02:26:29.729Z,15.00
2018-06-25T02:29:00.060Z,15.47
2018-06-25T02:31:30.874Z,15.40
2018-06-25T02:34:01.005Z,13.97
2018-06-25T02:36:32.077Z,14.97
2018-06-25T02:39:02.449Z,15.30
2018-06-25T02:41:32.564Z,13.70
2018-06-25T02:44:02.833Z,13.70
2018-06-25T02:46:33.152Z,13.97
2018-06-25T02:49:03.483Z,13.10
2018-06-25T02:51:33.884Z,12.20
2018-06-25T02:54:04.252Z,12.30
2018-06-25T02:56:34.530Z,14.13
2018-06-25T02:59:04.904Z,13.47
2018-06-25T03:01:35.452Z,13.10
2018-06-25T03:04:05.800Z,14.70
2018-06-25T03:06:36.418Z,12.50
2018-06-25T03:09:09.565Z,12.47
2018-06-25T03:11:40.172Z,12.80
2018-06-25T03:14:10.481Z,12.73
2018-06-25T03:16:40.853Z,11.97
2018-06-25T03:19:11.127Z,12.73
2018-06-25T03:21:41.553Z,12.97
2018-06-25T03:24:11.864Z,13.27
2018-06-25T03:26:42.267Z,13.10
2018-06-25T03:29:12.794Z,14.47
2018-06-25T03:31:43.118Z,14.37
2018-06-25T03:34:13.461Z,12.70
2018-06-25T03:36:43.836Z,14.93
2018-06-25T03:39:13.932Z,12.33
2018-06-25T03:41:44.238Z,14.53
2018-06-25T03:44:14.335Z,13.53
2018-06-25T03:46:44.559Z,14.57
2018-06-25T03:49:14.926Z,12.80
2018-06-25T03:51:45.445Z,16.03
2018-06-25T03:54:15.790Z,12.93
2018-06-25T03:56:45.898Z,12.70
2018-06-25T03:59:16.119Z,13.20
2018-06-25T04:01:46.681Z,14.27
2018-06-25T04:04:16.956Z,12.97
2018-06-25T04:06:47.341Z,13.90
2018-06-25T04:09:17.493Z,13.57
2018-06-25T04:11:47.768Z,11.70
2018-06-25T04:14:18.073Z,12.13
2018-06-25T04:16:48.385Z,10.60
2018-06-25T04:19:18.694Z,11.17
2018-06-25T04:21:49.271Z,10.50
2018-06-25T04:24:19.648Z,12.00
2018-06-25T04:26:50.001Z,11.30
2018-06-25T04:29:20.436Z,10.03
2018-06-25T04:31:50.782Z,9.50
2018-06-25T04:34:21.258Z,11.23
2018-06-25T04:36:51.531Z,9.13
2018-06-25T04:39:21.984Z,8.80
2018-06-25T04:41:52.450Z,8.50
2018-06-25T04:44:22.762Z,8.77
2018-06-25T04:46:53.077Z,8.90
2018-06-25T04:49:23.452Z,10.40
2018-06-25T04:51:53.781Z,9.20
2018-06-25T04:54:24.147Z,8.70
2018-06-25T04:56:54.123Z,9.53
2018-06-25T04:59:25.329Z,10.43
2018-06-25T05:01:55.911Z,9.93
2018-06-25T05:04:26.033Z,9.97
2018-06-25T05:06:56.285Z,10.70
2018-06-25T05:09:26.628Z,11.10
2018-06-25T05:11:57.020Z,9.67
2018-06-25T05:14:27.066Z,10.80
2018-06-25T05:16:57.280Z,11.30
2018-06-25T05:19:27.595Z,9.67
2018-06-25T05:21:58.033Z,11.40
2018-06-25T05:24:28.143Z,11.80
2018-06-25T05:26:58.034Z,10.97
2018-06-25T05:29:28.304Z,10.50
2018-06-25T05:31:59.031Z,13.53
2018-06-25T05:34:29.348Z,12.40
2018-06-25T05:36:59.749Z,13.40
2018-06-25T05:39:30.105Z,12.33
2018-06-25T05:42:00.487Z,11.93
2018-06-25T05:44:30.775Z,14.80
2018-06-25T05:47:01.122Z,12.80
2018-06-25T05:49:31.413Z,14.57
2018-06-25T05:52:01.858Z,12.10
2018-06-25T05:54:32.175Z,10.47
2018-06-25T05:57:02.532Z,11.00
2018-06-25T05:59:32.840Z,10.17
2018-06-25T06:02:03.271Z,10.43
2018-06-25T06:04:33.491Z,9.30
2018-06-25T06:07:03.853Z,9.07
2018-06-25T06:09:33.876Z,9.03
2018-06-25T06:12:04.133Z,9.03
2018-06-25T06:14:34.424Z,9.23
2018-06-25T06:17:04.723Z,10.10
2018-06-25T06:19:35.072Z,7.13
2018-06-25T06:22:05.419Z,8.90
2018-06-25T06:24:35.778Z,7.30
2018-06-25T06:27:06.332Z,8.40
2018-06-25T06:29:36.771Z,7.13
2018-06-25T06:32:07.339Z,7.10
2018-06-25T06:34:37.704Z,6.77
2018-06-25T06:37:08.004Z,6.70
2018-06-25T06:39:38.368Z,7.00
2018-06-25T06:42:08.742Z,7.63
2018-06-25T06:44:39.096Z,7.60
2018-06-25T06:47:09.545Z,6.90
2018-06-25T06:49:39.852Z,6.83
2018-06-25T06:52:10.311Z,6.00
2018-06-25T06:54:40.611Z,6.20
2018-06-25T06:57:10.943Z,5.93
2018-06-25T06:59:41.235Z,6.37
2018-06-25T07:02:11.500Z,6.30
2018-06-25T07:04:41.578Z,7.70
2018-06-25T07:07:11.892Z,7.57
2018-06-25T07:09:42.217Z,8.63
2018-06-25T07:12:12.532Z,7.87
2018-06-25T07:14:42.882Z,7.13
2018-06-25T07:17:13.263Z,7.43
2018-06-25T07:19:43.620Z,6.60
2018-06-25T07:22:14.171Z,7.33
2018-06-25T07:24:44.553Z,7.50
2018-06-25T07:27:14.912Z,7.67
2018-06-25T07:29:45.320Z,8.50
2018-06-25T07:32:15.857Z,8.43
2018-06-25T07:34:46.189Z,9.50
2018-06-25T07:37:16.309Z,8.87
2018-06-25T07:39:46.566Z,9.37
2018-06-25T07:42:16.877Z,9.13
2018-06-25T07:44:47.195Z,8.53
2018-06-25T07:47:17.635Z,10.27
2018-06-25T07:49:47.912Z,9.07
2018-06-25T07:52:18.356Z,10.73
2018-06-25T07:54:48.825Z,9.70
2018-06-25T07:57:18.908Z,9.73
2018-06-25T07:59:49.146Z,10.17
2018-06-25T08:02:19.470Z,10.63
2018-06-25T08:04:49.804Z,10.27
2018-06-25T08:07:20.080Z,9.40
2018-06-25T08:09:50.571Z,10.13
2018-06-25T08:12:20.915Z,9.97
2018-06-25T08:14:51.748Z,9.80
2018-06-25T08:17:22.089Z,9.77
2018-06-25T08:19:52.446Z,10.00
2018-06-25T08:22:23.380Z,9.17
2018-06-25T08:24:53.847Z,10.73
2018-06-25T08:27:23.888Z,9.13
2018-06-25T08:29:54.091Z,9.00
2018-06-25T08:32:24.475Z,10.97
2018-06-25T08:34:54.886Z,10.40
2018-06-25T08:37:25.115Z,9.67
2018-06-25T08:39:55.594Z,9.33
2018-06-25T08:42:26.192Z,8.50
2018-06-25T08:44:56.551Z,9.60
2018-06-25T08:47:26.944Z,7.30
2018-06-25T08:49:57.317Z,8.80
2018-06-25T08:52:27.719Z,7.43
2018-06-25T08:54:58.047Z,6.73
2018-06-25T08:57:28.473Z,7.10
2018-06-25T08:59:58.808Z,6.83
2018-06-25T09:02:29.219Z,7.17
2018-06-25T09:04:59.524Z,6.57
2018-06-25T09:07:29.828Z,5.57
2018-06-25T09:10:00.228Z,6.90
2018-06-25T09:12:30.629Z,6.47
2018-06-25T09:15:01.084Z,7.03
2018-06-25T09:17:31.431Z,6.43
2018-06-25T09:20:01.759Z,5.97
2018-06-25T09:22:32.172Z,5.00
2018-06-25T09:25:02.236Z,5.93
2018-06-25T09:27:37.783Z,5.20
2018-06-25T09:30:09.172Z,5.27
2018-06-25T09:32:39.636Z,4.43
2018-06-25T09:35:10.069Z,4.97
2018-06-25T09:37:40.057Z,5.93
2018-06-25T09:40:10.307Z,6.47
2018-06-25T09:42:40.655Z,5.60
2018-06-25T09:45:12.105Z,5.80
2018-06-25T09:47:42.344Z,4.83
2018-06-25T09:50:12.487Z,6.30
2018-06-25T09:52:42.681Z,5.80
2018-06-25T09:55:13.172Z,5.30
2018-06-25T09:57:43.484Z,5.57
2018-06-25T10:00:17.977Z,5.37
2018-06-25T10:02:48.342Z,4.90
2018-06-25T10:05:18.463Z,4.77
2018-06-25T10:07:48.716Z,5.60
2018-06-25T10:10:18.965Z,6.77
2018-06-25T10:12:49.284Z,5.50
2018-06-25T10:15:19.681Z,5.87
2018-06-25T10:17:49.895Z,5.00
2018-06-25T10:20:20.255Z,5.80
2018-06-25T10:22:50.557Z,5.10
2018-06-25T10:25:20.978Z,5.40
2018-06-25T10:27:51.417Z,4.77
2018-06-25T10:30:21.816Z,4.40
2018-06-25T10:32:51.803Z,4.60
2018-06-25T10:35:21.977Z,5.37
2018-06-25T10:37:52.566Z,4.87
2018-06-25T10:40:22.958Z,5.23
2018-06-25T10:42:53.282Z,4.37
2018-06-25T10:45:23.583Z,4.20
2018-06-25T10:47:54.175Z,5.27
2018-06-25T10:50:24.263Z,4.70
2018-06-25T10:52:54.154Z,4.93
2018-06-25T10:55:24.490Z,5.60
2018-06-25T10:57:54.982Z,5.90
2018-06-25T11:00:25.520Z,5.63
2018-06-25T11:02:55.756Z,5.53
2018-06-25T11:05:26.182Z,5.10
2018-06-25T11:07:56.531Z,5.67
2018-06-25T11:10:26.892Z,5.37
2018-06-25T11:12:57.649Z,5.73
2018-06-25T11:15:28.010Z,5.20
2018-06-25T11:17:58.507Z,5.43
2018-06-25T11:20:28.566Z,4.47
2018-06-25T11:22:58.892Z,4.60
2018-06-25T11:25:29.511Z,4.60
2018-06-25T11:27:59.776Z,5.03
2018-06-25T11:30:30.097Z,4.67
2018-06-25T11:33:00.418Z,4.63
2018-06-25T11:35:30.663Z,5.40
2018-06-25T11:38:00.859Z,4.90
2018-06-25T11:40:31.191Z,4.63
2018-06-25T11:43:02.524Z,4.27
2018-06-25T11:45:33.026Z,4.53
2018-06-25T11:48:03.297Z,4.77
2018-06-25T11:50:33.724Z,4.60
2018-06-25T11:53:04.076Z,4.00
2018-06-25T11:55:34.480Z,4.50
2018-06-25T11:58:04.905Z,5.23
2018-06-25T12:00:35.396Z,4.93
2018-06-25T12:03:06.060Z,4.13
2018-06-25T12:05:36.051Z,4.20
2018-06-25T12:08:06.270Z,4.00
2018-06-25T12:10:36.576Z,4.77
2018-06-25T12:13:07.022Z,3.97
2018-06-25T12:15:37.349Z,4.40
2018-06-25T12:18:07.752Z,3.53
2018-06-25T12:20:38.067Z,3.30
2018-06-25T12:23:08.891Z,4.23
2018-06-25T12:25:39.144Z,3.80
2018-06-25T12:28:09.449Z,3.80
2018-06-25T12:30:39.714Z,3.17
2018-06-25T12:33:10.287Z,3.47
2018-06-25T12:35:40.612Z,4.77
2018-06-25T12:38:10.979Z,4.00
2018-06-25T12:40:41.351Z,2.40
2018-06-25T12:43:11.803Z,2.73
2018-06-25T12:45:42.147Z,2.83
2018-06-25T12:48:12.386Z,2.53
2018-06-25T12:50:42.706Z,2.77
2018-06-25T12:53:13.095Z,3.50
2018-06-25T12:55:43.399Z,3.30
2018-06-25T12:58:13.671Z,2.80
2018-06-25T13:00:43.965Z,3.20
2018-06-25T13:03:14.407Z,3.30
2018-06-25T13:05:44.707Z,3.43
2018-06-25T13:08:15.084Z,3.30
2018-06-25T13:10:45.498Z,2.37
2018-06-25T13:13:15.844Z,2.27
2018-06-25T13:15:45.908Z,3.00
2018-06-25T13:18:16.161Z,2.33
2018-06-25T13:20:46.491Z,2.53
2018-06-25T13:23:16.587Z,2.43
2018-06-25T13:25:46.916Z,2.23
2018-06-25T13:28:17.236Z,2.97
2018-06-25T13:30:47.247Z,2.67
2018-06-25T13:33:17.398Z,2.93
2018-06-25T13:35:47.784Z,2.90
2018-06-25T13:38:17.897Z,2.40
2018-06-25T13:40:48.100Z,3.00
2018-06-25T13:43:18.463Z,2.77
2018-06-25T13:45:48.814Z,3.27
2018-06-25T13:48:19.160Z,2.80
2018-06-25T13:50:49.400Z,2.40
2018-06-25T13:53:20.135Z,3.00
2018-06-25T13:55:50.541Z,2.57
2018-06-25T13:58:20.883Z,2.27
2018-06-25T14:00:51.186Z,2.50
2018-06-25T14:03:21.991Z,2.67
2018-06-25T14:05:52.464Z,3.03
2018-06-25T14:08:22.745Z,2.27
2018-06-25T14:10:53.372Z,2.40
2018-06-25T14:13:23.716Z,2.17
2018-06-25T14:15:54.034Z,2.37
2018-06-25T14:18:24.318Z,2.00
2018-06-25T14:20:54.698Z,2.50
2018-06-25T14:23:24.987Z,2.03
2018-06-25T14:26:01.119Z,2.80
2018-06-25T14:28:31.600Z,2.30
2018-06-25T14:31:07.561Z,2.67
2018-06-25T14:33:40.981Z,2.20
2018-06-25T14:36:11.751Z,2.63
2018-06-25T14:38:42.092Z,2.33
2018-06-25T14:41:12.359Z,2.50
2018-06-25T14:43:42.930Z,2.07
2018-06-25T14:46:13.279Z,2.90
2018-06-25T14:48:43.609Z,2.43
2018-06-25T14:51:13.927Z,1.97
2018-06-25T14:53:43.905Z,2.37
2018-06-25T14:56:14.181Z,2.73
2018-06-25T14:58:44.349Z,2.70
2018-06-25T15:01:14.703Z,2.30
2018-06-25T15:03:45.015Z,2.10
2018-06-25T15:06:16.580Z,2.37
2018-06-25T15:08:46.895Z,3.20
2018-06-25T15:11:17.268Z,2.57
2018-06-25T15:13:47.608Z,2.30
2018-06-25T15:16:17.941Z,2.00
2018-06-25T15:18:48.477Z,2.30
2018-06-25T15:21:18.785Z,1.83
2018-06-25T15:23:49.990Z,2.23
2018-06-25T15:26:20.272Z,2.77
2018-06-25T15:28:50.535Z,2.33
2018-06-25T15:31:20.853Z,2.93
2018-06-25T15:33:51.247Z,2.10
2018-06-25T15:36:21.233Z,2.40
2018-06-25T15:38:51.416Z,2.83
2018-06-25T15:41:21.693Z,2.20
2018-06-25T15:43:52.112Z,2.77
2018-06-25T15:46:22.383Z,2.23
2018-06-25T15:48:53.016Z,2.53
2018-06-25T15:51:23.356Z,2.80
2018-06-25T15:53:53.696Z,2.80
2018-06-25T15:56:24.171Z,2.57
2018-06-25T15:58:54.563Z,2.80
2018-06-25T16:01:24.955Z,2.50
2018-06-25T16:03:55.523Z,3.33
2018-06-25T16:06:26.084Z,3.33
2018-06-25T16:08:56.415Z,3.70
2018-06-25T16:11:26.740Z,3.90
2018-06-25T16:13:56.807Z,4.10
2018-06-25T16:16:26.766Z,3.93
2018-06-25T16:18:57.075Z,4.67
2018-06-25T16:21:27.428Z,4.10
2018-06-25T16:23:57.788Z,4.67
2018-06-25T16:26:27.754Z,4.37
2018-06-25T16:28:58.094Z,5.60
2018-06-25T16:31:28.363Z,4.70
2018-06-25T16:33:58.842Z,5.20
2018-06-25T16:36:29.225Z,4.10
2018-06-25T16:38:59.547Z,4.70
2018-06-25T16:41:29.879Z,4.50
2018-06-25T16:44:00.241Z,4.70
2018-06-25T16:46:30.967Z,4.83
2018-06-25T16:49:01.556Z,4.00
2018-06-25T16:51:31.917Z,4.17
2018-06-25T16:54:02.311Z,4.70
2018-06-25T16:56:32.644Z,4.37
2018-06-25T16:59:03.501Z,4.40
2018-06-25T17:01:34.207Z,4.13
2018-06-25T17:04:04.532Z,3.10
2018-06-25T17:06:34.920Z,3.60
2018-06-25T17:09:08.393Z,3.60
2018-06-25T17:11:38.552Z,3.50
2018-06-25T17:14:08.874Z,3.13
2018-06-25T17:16:39.211Z,2.90
2018-06-25T17:19:10.918Z,2.70
2018-06-25T17:21:41.258Z,2.83
2018-06-25T17:24:11.608Z,2.50
2018-06-25T17:26:41.958Z,2.40
2018-06-25T17:29:12.338Z,3.13
2018-06-25T17:31:42.612Z,2.43
2018-06-25T17:34:13.055Z,3.03
2018-06-25T17:36:43.492Z,3.30
2018-06-25T17:39:13.791Z,2.97
2018-06-25T17:41:44.056Z,2.40
2018-06-25T17:44:14.410Z,2.50
2018-06-25T17:46:44.912Z,2.53
2018-06-25T17:49:15.265Z,2.70
2018-06-25T17:51:45.633Z,2.90
2018-06-25T17:54:15.961Z,3.00
2018-06-25T17:56:46.557Z,2.97
2018-06-25T17:59:16.913Z,3.07
2018-06-25T18:01:47.333Z,3.10
2018-06-25T18:04:17.364Z,2.60
2018-06-25T18:06:47.577Z,2.67
2018-06-25T18:09:17.902Z,2.72
2018-06-25T18:11:48.381Z,2.50
2018-06-25T18:14:18.676Z,2.40
2018-06-25T18:16:48.976Z,2.60
2018-06-25T18:19:19.331Z,2.83
2018-06-25T18:21:49.660Z,3.13
2018-06-25T18:24:19.943Z,3.10
2018-06-25T18:26:50.347Z,2.73
2018-06-25T18:29:20.782Z,2.70
2018-06-25T18:31:51.236Z,3.30
2018-06-25T18:34:21.548Z,3.00
2018-06-25T18:36:51.568Z,3.37
2018-06-25T18:39:21.848Z,3.07
2018-06-25T18:41:52.361Z,3.40
2018-06-25T18:44:22.737Z,3.60
2018-06-25T18:46:53.528Z,3.50
2018-06-25T18:49:23.978Z,3.60
2018-06-25T18:51:54.326Z,4.03
2018-06-25T18:54:24.447Z,4.20
2018-06-25T18:56:54.699Z,4.23
2018-06-25T18:59:25.175Z,5.13
2018-06-25T19:01:55.838Z,4.67
2018-06-25T19:04:25.947Z,5.80
2018-06-25T19:06:56.295Z,4.93
2018-06-25T19:09:27.220Z,5.13
2018-06-25T19:11:57.618Z,5.17
2018-06-25T19:14:28.044Z,4.90
2018-06-25T19:16:58.385Z,4.40
2018-06-25T19:19:28.964Z,5.10
2018-06-25T19:21:59.346Z,5.40
2018-06-25T19:24:29.802Z,4.60
2018-06-25T19:27:00.952Z,5.50
2018-06-25T19:29:31.476Z,4.83
2018-06-25T19:32:01.879Z,5.70
2018-06-25T19:34:32.412Z,5.90
2018-06-25T19:37:02.466Z,5.90
2018-06-25T19:39:32.828Z,6.47
2018-06-25T19:42:03.269Z,5.43
2018-06-25T19:44:33.795Z,5.57
2018-06-25T19:47:04.188Z,5.83
2018-06-25T19:49:34.534Z,7.73
2018-06-25T19:52:04.944Z,6.10
2018-06-25T19:54:35.414Z,6.20
2018-06-25T19:57:06.017Z,7.00
2018-06-25T19:59:36.599Z,6.73
2018-06-25T20:02:06.959Z,6.40
2018-06-25T20:04:37.037Z,7.63
2018-06-25T20:07:07.369Z,6.20
2018-06-25T20:09:37.732Z,6.10
2018-06-25T20:12:08.115Z,6.80
2018-06-25T20:14:38.546Z,6.77
2018-06-25T20:17:08.954Z,6.73
2018-06-25T20:19:39.487Z,6.20
2018-06-25T20:22:09.968Z,6.40
2018-06-25T20:24:40.324Z,7.33
2018-06-25T20:27:10.315Z,8.43
2018-06-25T20:29:40.608Z,7.33
2018-06-25T20:32:11.101Z,8.20
2018-06-25T20:34:41.498Z,8.10
2018-06-25T20:37:11.828Z,8.90
2018-06-25T20:39:42.140Z,8.37
2018-06-25T20:42:12.164Z,9.57
2018-06-25T20:44:42.446Z,9.10
2018-06-25T20:47:12.770Z,10.87
2018-06-25T20:49:43.162Z,8.67
2018-06-25T20:52:13.473Z,10.47
2018-06-25T20:54:43.966Z,11.07
2018-06-25T20:57:15.274Z,10.23
2018-06-25T20:59:46.032Z,9.33
2018-06-25T21:02:16.352Z,10.63
2018-06-25T21:04:46.787Z,10.53
2018-06-25T21:07:16.910Z,9.57
2018-06-25T21:09:47.126Z,9.53
2018-06-25T21:12:17.533Z,10.30
2018-06-25T21:14:47.483Z,10.17
2018-06-25T21:17:17.665Z,10.67
2018-06-25T21:19:47.994Z,12.57
2018-06-25T21:22:18.250Z,10.70
2018-06-25T21:24:48.552Z,10.20
2018-06-25T21:27:19.003Z,10.73
2018-06-25T21:29:49.299Z,11.10
2018-06-25T21:32:19.632Z,12.10
2018-06-25T21:34:49.913Z,11.20
2018-06-25T21:37:20.295Z,11.93
2018-06-25T21:39:50.623Z,12.57
2018-06-25T21:42:20.891Z,12.27
2018-06-25T21:44:51.201Z,11.57
2018-06-25T21:47:21.816Z,12.40
2018-06-25T21:49:52.218Z,12.60
2018-06-25T21:52:22.966Z,12.13
2018-06-25T21:54:53.195Z,12.03
2018-06-25T21:57:23.586Z,12.70
2018-06-25T21:59:54.067Z,12.83
2018-06-25T22:02:24.460Z,12.33
2018-06-25T22:04:54.784Z,11.70
2018-06-25T22:07:25.061Z,11.57
2018-06-25T22:09:55.340Z,11.30
2018-06-25T22:12:25.768Z,14.00
2018-06-25T22:14:56.303Z,12.23
2018-06-25T22:17:26.595Z,13.40
2018-06-25T22:19:56.980Z,12.80
2018-06-25T22:22:27.364Z,12.27
2018-06-25T22:24:57.691Z,12.60
2018-06-25T22:27:27.984Z,12.90
2018-06-25T22:29:58.438Z,12.80
2018-06-25T22:32:29.037Z,12.73
2018-06-25T22:34:59.311Z,13.60
2018-06-25T22:37:29.625Z,12.90
2018-06-25T22:39:59.726Z,13.83
2018-06-25T22:42:31.547Z,13.67
2018-06-25T22:45:02.021Z,13.23
2018-06-25T22:47:32.456Z,12.77
2018-06-25T22:50:02.940Z,15.30
2018-06-25T22:52:33.288Z,14.10
2018-06-25T22:55:03.695Z,13.93
2018-06-25T22:57:34.015Z,13.87
2018-06-25T23:00:04.576Z,12.80
2018-06-25T23:02:34.904Z,13.30
2018-06-25T23:05:05.085Z,14.80
2018-06-25T23:07:35.284Z,12.87
2018-06-25T23:10:05.454Z,14.83
2018-06-25T23:12:35.636Z,12.90
2018-06-25T23:15:06.032Z,13.97
2018-06-25T23:17:36.030Z,14.60
2018-06-25T23:20:06.289Z,15.53
2018-06-25T23:22:36.665Z,13.93
2018-06-25T23:25:06.971Z,12.83
2018-06-25T23:27:37.199Z,13.27
2018-06-25T23:30:07.600Z,13.10
2018-06-25T23:32:38.016Z,13.27
2018-06-25T23:35:08.407Z,12.83
2018-06-25T23:37:38.780Z,12.37
2018-06-25T23:40:09.223Z,13.60
2018-06-25T23:42:39.563Z,13.33
2018-06-25T23:45:09.932Z,12.40
2018-06-25T23:47:40.328Z,12.30
2018-06-25T23:50:10.815Z,12.80
2018-06-25T23:52:41.070Z,12.97
2018-06-25T23:55:11.362Z,12.27
2018-06-25T23:57:41.630Z,13.20
